Aviation Digital Data Service (ADDS)

Output produced by TAFs form (0739 UTC 26 October 2014)
found at http://aviationweather.gov/adds/tafs/
 
KVEL 260520Z 2606/2706 27007KT P6SM SCT140 BKN250 
     FM261400 15003KT P6SM SCT140 SCT250 
     FM261900 23008KT P6SM SCT140 SCT200 
     FM270100 30005KT P6SM SCT120 BKN200